Time;durP1;ratioP1;P1;durP2;ratioP2;P2;SDS_P1;SDS_P2;PMS_P1;PMS_P2;Temp;Humidity;BMP_temperature;BMP_pressure;BME280_temperature;BME280_humidity;BME280_pressure;Samples;Min_cycle;Max_cycle;Signal;HPM_P1;HPM_P2
2023/06/20 00:01:06;;;;;;;15.60;13.00;;;16.90;99.90;;;;;;5089065;28;20518;-76
2023/06/20 00:03:33;;;;;;;17.10;12.70;;;16.80;99.90;;;;;;5088684;28;20040;-76
2023/06/20 00:06:01;;;;;;;19.45;12.85;;;16.80;99.90;;;;;;5067831;28;20434;-75
2023/06/20 00:08:28;;;;;;;16.95;13.13;;;17.00;99.90;;;;;;5090649;28;20139;-76
2023/06/20 00:10:57;;;;;;;15.30;13.32;;;17.00;99.90;;;;;;5088837;28;20438;-76
2023/06/20 00:13:24;;;;;;;14.70;13.10;;;17.10;99.90;;;;;;5089444;28;20663;-76
2023/06/20 00:15:52;;;;;;;18.00;12.85;;;17.10;99.90;;;;;;5089319;28;20048;-77
2023/06/20 00:18:19;;;;;;;18.55;14.30;;;17.10;99.90;;;;;;5089421;28;20048;-77
2023/06/20 00:20:47;;;;;;;16.42;13.45;;;17.00;99.90;;;;;;5067677;28;20396;-76
2023/06/20 00:23:14;;;;;;;18.27;13.77;;;16.90;99.90;;;;;;5091420;28;20036;-76
2023/06/20 00:25:42;;;;;;;18.88;14.35;;;16.80;99.90;;;;;;5094802;28;20522;-75
2023/06/20 00:28:13;;;;;;;17.52;13.95;;;16.90;99.90;;;;;;5092125;28;20059;-75
2023/06/20 00:30:41;;;;;;;17.45;13.82;;;16.80;99.90;;;;;;5096305;28;20128;-75
2023/06/20 00:33:08;;;;;;;15.35;13.23;;;16.90;99.90;;;;;;5068431;28;20530;-76
2023/06/20 00:35:36;;;;;;;15.38;12.80;;;16.80;99.90;;;;;;5088450;28;20064;-75
2023/06/20 00:38:03;;;;;;;15.52;12.95;;;16.80;99.90;;;;;;5088804;28;20044;-75
2023/06/20 00:40:33;;;;;;;22.08;13.65;;;16.80;99.90;;;;;;5089151;28;20036;-76
2023/06/20 00:43:01;;;;;;;15.02;13.45;;;16.70;99.90;;;;;;5067513;28;20417;-76
2023/06/20 00:45:33;;;;;;;17.08;12.82;;;16.80;99.90;;;;;;5070954;28;20048;-76
2023/06/20 00:48:02;;;;;;;17.70;13.32;;;16.70;99.90;;;;;;5068005;28;20378;-76
2023/06/20 00:50:31;;;;;;;17.70;13.18;;;16.80;99.90;;;;;;5067732;28;20048;-75
2023/06/20 00:53:00;;;;;;;14.57;13.07;;;16.70;99.90;;;;;;5067173;28;20052;-76
2023/06/20 00:55:29;;;;;;;17.15;13.65;;;16.60;99.90;;;;;;5070945;28;20210;-76
2023/06/20 00:57:58;;;;;;;19.02;14.15;;;16.40;99.90;;;;;;5087858;28;20527;-76
2023/06/20 01:00:26;;;;;;;17.90;14.43;;;16.40;99.90;;;;;;5089461;28;20504;-75
2023/06/20 01:03:01;;;;;;;16.75;14.40;;;16.40;99.90;;;;;;5067027;28;20045;-76
2023/06/20 01:05:29;;;;;;;15.95;14.05;;;16.40;99.90;;;;;;5086943;28;20211;-75
2023/06/20 01:08:07;;;;;;;15.32;13.73;;;16.50;99.90;;;;;;5081364;28;20048;-76
2023/06/20 01:10:45;;;;;;;16.05;14.30;;;16.50;99.90;;;;;;5081446;28;20040;-76
2023/06/20 01:13:20;;;;;;;16.67;13.60;;;16.50;99.90;;;;;;5068408;28;20052;-76
2023/06/20 01:15:57;;;;;;;30.93;22.17;;;16.40;99.90;;;;;;5083466;28;20500;-75
2023/06/20 01:18:36;;;;;;;16.48;13.88;;;16.40;99.90;;;;;;5069868;28;20339;-76
2023/06/20 01:21:09;;;;;;;16.33;13.85;;;16.40;99.90;;;;;;5067245;28;20131;-77
2023/06/20 01:23:44;;;;;;;16.70;13.85;;;16.40;99.90;;;;;;5080894;28;20131;-76
2023/06/20 01:26:18;;;;;;;15.15;13.55;;;16.40;99.90;;;;;;5088609;28;20058;-75
2023/06/20 01:28:50;;;;;;;15.20;13.60;;;16.30;99.90;;;;;;5089223;28;20036;-74
2023/06/20 01:31:23;;;;;;;15.50;13.52;;;16.30;99.90;;;;;;5089442;28;20101;-75
2023/06/20 01:33:54;;;;;;;17.25;13.80;;;16.20;99.90;;;;;;5066581;28;20131;-76
2023/06/20 01:36:24;;;;;;;14.55;12.70;;;16.20;99.90;;;;;;5069542;28;20090;-76
2023/06/20 01:38:58;;;;;;;15.60;13.48;;;16.20;99.90;;;;;;5087833;28;20127;-76
2023/06/20 01:41:27;;;;;;;18.15;13.10;;;16.10;99.90;;;;;;5081153;28;20048;-74
2023/06/20 01:43:57;;;;;;;17.35;12.85;;;16.20;99.90;;;;;;5078465;28;20037;-74
2023/06/20 01:46:26;;;;;;;16.73;14.00;;;16.20;99.90;;;;;;5087686;28;20048;-76
2023/06/20 01:48:55;;;;;;;16.25;12.77;;;16.20;99.90;;;;;;5070225;28;20075;-75
2023/06/20 01:51:22;;;;;;;17.40;13.25;;;16.10;99.90;;;;;;5090149;28;20490;-76
2023/06/20 01:53:52;;;;;;;15.15;13.57;;;16.10;99.90;;;;;;5087479;28;20048;-75
2023/06/20 01:56:23;;;;;;;16.13;14.00;;;16.00;99.90;;;;;;5085669;28;20045;-75
2023/06/20 01:58:51;;;;;;;16.17;13.45;;;16.00;99.90;;;;;;5066311;28;20047;-75
2023/06/20 02:01:19;;;;;;;18.08;13.57;;;16.10;99.90;;;;;;5069658;28;20063;-74
2023/06/20 02:03:48;;;;;;;15.02;13.05;;;16.10;99.90;;;;;;5088184;28;20094;-75
2023/06/20 02:06:17;;;;;;;17.42;14.50;;;16.10;99.90;;;;;;5090290;28;20048;-75
2023/06/20 02:08:45;;;;;;;15.35;13.75;;;16.10;99.90;;;;;;5085269;28;20639;-77
2023/06/20 02:11:15;;;;;;;15.60;13.98;;;16.10;99.90;;;;;;5069447;28;20076;-75
2023/06/20 02:13:43;;;;;;;15.40;13.70;;;16.10;99.90;;;;;;5070896;28;20041;-75
2023/06/20 02:16:13;;;;;;;19.35;13.40;;;16.00;99.90;;;;;;5067895;28;20041;-77
2023/06/20 02:18:41;;;;;;;16.95;13.85;;;16.10;99.90;;;;;;5091348;28;20060;-74
2023/06/20 02:21:13;;;;;;;19.20;14.65;;;16.10;99.90;;;;;;5113557;28;20056;-75
2023/06/20 02:23:41;;;;;;;18.05;14.57;;;16.00;99.90;;;;;;5092800;28;20075;-75
2023/06/20 02:26:15;;;;;;;16.00;13.95;;;15.90;99.90;;;;;;5090295;28;20052;-76
2023/06/20 02:28:46;;;;;;;17.75;14.00;;;15.90;99.90;;;;;;5088356;28;20044;-76
2023/06/20 02:31:17;;;;;;;17.25;14.00;;;16.00;99.90;;;;;;5068202;28;20045;-75
2023/06/20 02:33:46;;;;;;;17.45;14.85;;;15.90;99.90;;;;;;5082298;28;20416;-75
2023/06/20 02:36:15;;;;;;;15.70;13.60;;;15.90;99.90;;;;;;5084717;28;20116;-76
2023/06/20 02:38:42;;;;;;;17.65;14.23;;;15.90;99.90;;;;;;5065983;28;20131;-76
2023/06/20 02:41:10;;;;;;;17.42;14.43;;;16.00;99.90;;;;;;5085209;28;20036;-75
2023/06/20 02:43:39;;;;;;;18.60;14.52;;;15.90;99.90;;;;;;5088354;28;20043;-77
2023/06/20 02:46:14;;;;;;;18.88;14.50;;;15.80;99.90;;;;;;5087256;28;20048;-77
2023/06/20 02:48:46;;;;;;;19.90;14.02;;;15.70;99.90;;;;;;5082255;28;20048;-76
2023/06/20 02:51:23;;;;;;;21.77;15.90;;;15.70;99.90;;;;;;5084722;28;20036;-77
2023/06/20 02:54:05;;;;;;;17.83;15.02;;;15.60;99.90;;;;;;5087810;28;20113;-76
2023/06/20 02:56:37;;;;;;;17.33;15.10;;;15.50;99.90;;;;;;5065596;28;20033;-74
2023/06/20 02:59:10;;;;;;;20.38;15.35;;;15.50;99.90;;;;;;5067866;28;20489;-78
2023/06/20 03:01:38;;;;;;;16.10;14.18;;;15.50;99.90;;;;;;5069844;28;20110;-75
2023/06/20 03:04:08;;;;;;;19.23;14.63;;;15.60;99.90;;;;;;5069588;28;20040;-75
2023/06/20 03:06:37;;;;;;;17.63;14.55;;;15.60;99.90;;;;;;5070341;28;20040;-74
2023/06/20 03:09:06;;;;;;;16.08;13.85;;;15.70;99.90;;;;;;5069872;28;20045;-78
2023/06/20 03:11:34;;;;;;;18.23;14.07;;;15.80;99.90;;;;;;5075781;28;20119;-75
2023/06/20 03:14:03;;;;;;;17.80;15.30;;;15.80;99.90;;;;;;5073528;28;20256;-76
2023/06/20 03:16:33;;;;;;;18.52;14.52;;;15.90;99.90;;;;;;5072986;28;20061;-75
2023/06/20 03:19:03;;;;;;;17.13;14.63;;;15.90;99.90;;;;;;5072006;28;20127;-77
2023/06/20 03:21:30;;;;;;;18.70;15.50;;;15.80;99.90;;;;;;5090599;28;20060;-77
2023/06/20 03:24:02;;;;;;;17.13;14.73;;;15.90;99.90;;;;;;5069202;28;20131;-76
2023/06/20 03:26:29;;;;;;;19.48;16.60;;;15.90;99.90;;;;;;5071774;28;20068;-77
2023/06/20 03:28:57;;;;;;;19.60;15.90;;;15.80;99.90;;;;;;5085704;28;20041;-76
2023/06/20 03:31:26;;;;;;;19.80;16.67;;;15.80;99.90;;;;;;5088725;28;20377;-76
2023/06/20 03:33:55;;;;;;;19.58;14.98;;;15.70;99.90;;;;;;5069086;28;20428;-76
2023/06/20 03:36:23;;;;;;;19.77;15.18;;;15.80;99.90;;;;;;5071197;28;20048;-76
2023/06/20 03:38:53;;;;;;;20.08;15.05;;;15.80;99.90;;;;;;5068349;28;20047;-75
2023/06/20 03:41:24;;;;;;;19.90;15.48;;;15.90;99.90;;;;;;5071202;28;20067;-76
2023/06/20 03:43:52;;;;;;;19.85;14.98;;;15.80;99.90;;;;;;5068861;28;20054;-75
2023/06/20 03:46:20;;;;;;;18.45;15.10;;;15.90;99.90;;;;;;5070251;28;20452;-75
2023/06/20 03:48:49;;;;;;;18.65;15.68;;;16.10;99.90;;;;;;5069804;28;20226;-76
2023/06/20 03:51:19;;;;;;;17.08;15.27;;;16.30;99.90;;;;;;5072814;28;20036;-75
2023/06/20 03:53:47;;;;;;;20.45;16.00;;;16.50;99.90;;;;;;5069968;28;20071;-75
2023/06/20 03:56:15;;;;;;;19.65;14.35;;;16.80;99.90;;;;;;5072977;28;20055;-76
2023/06/20 03:58:42;;;;;;;16.25;13.60;;;17.40;99.90;;;;;;5092243;28;20044;-76
2023/06/20 04:01:10;;;;;;;17.60;13.07;;;17.90;99.90;;;;;;5068865;28;20563;-76
2023/06/20 04:03:37;;;;;;;14.45;12.30;;;18.50;99.90;;;;;;5068438;28;20067;-77
2023/06/20 04:06:06;;;;;;;17.40;12.90;;;19.20;99.90;;;;;;5068819;28;20044;-75
2023/06/20 04:08:36;;;;;;;17.48;11.57;;;20.00;99.90;;;;;;5082101;28;20056;-76
2023/06/20 04:11:04;;;;;;;14.60;11.50;;;20.70;99.90;;;;;;5068512;28;20412;-74
2023/06/20 04:13:31;;;;;;;16.70;11.75;;;21.00;99.90;;;;;;5069008;28;20053;-76
2023/06/20 04:15:58;;;;;;;19.35;11.57;;;21.70;99.90;;;;;;5086425;28;20044;-77
2023/06/20 04:18:27;;;;;;;13.88;10.55;;;22.50;99.90;;;;;;5074989;28;20105;-75
2023/06/20 04:20:57;;;;;;;14.18;11.15;;;23.00;99.90;;;;;;5089789;28;20044;-77
2023/06/20 04:23:24;;;;;;;17.08;11.63;;;23.30;99.90;;;;;;5086844;28;20059;-76
2023/06/20 04:25:53;;;;;;;14.60;11.57;;;23.50;99.90;;;;;;5067843;28;20045;-78
2023/06/20 04:28:21;;;;;;;14.15;10.23;;;23.60;99.90;;;;;;5087156;28;20484;-75
2023/06/20 04:30:55;;;;;;;15.52;10.90;;;23.60;99.90;;;;;;5068137;28;20048;-76
2023/06/20 04:33:24;;;;;;;11.85;10.60;;;24.60;99.90;;;;;;5087930;28;20136;-75
2023/06/20 04:35:57;;;;;;;13.20;10.90;;;25.30;99.90;;;;;;5084217;28;20052;-76
2023/06/20 04:38:26;;;;;;;12.20;10.60;;;25.90;99.90;;;;;;5087029;28;20052;-76
2023/06/20 04:40:55;;;;;;;16.88;11.43;;;26.30;99.90;;;;;;5089813;28;20040;-76
2023/06/20 04:43:23;;;;;;;15.13;11.30;;;26.40;99.90;;;;;;5070015;28;20059;-77
2023/06/20 04:45:50;;;;;;;16.77;10.57;;;27.20;99.90;;;;;;5067896;28;20132;-77
2023/06/20 04:48:17;;;;;;;14.90;12.32;;;27.60;99.90;;;;;;5086279;28;20066;-78
2023/06/20 04:50:45;;;;;;;14.98;12.88;;;27.30;99.90;;;;;;5074633;28;20045;-78
2023/06/20 04:53:12;;;;;;;15.63;13.13;;;27.20;99.90;;;;;;5093885;28;20036;-78
2023/06/20 04:55:39;;;;;;;14.82;12.50;;;27.40;99.90;;;;;;5076619;28;20072;-76
2023/06/20 04:58:08;;;;;;;15.18;12.95;;;28.00;99.90;;;;;;5066882;28;20039;-75
2023/06/20 05:00:37;;;;;;;19.42;13.27;;;28.50;99.90;;;;;;5068167;28;20040;-78
2023/06/20 05:03:04;;;;;;;14.77;12.95;;;28.60;99.90;;;;;;5068164;28;20492;-78
2023/06/20 05:05:32;;;;;;;15.90;11.43;;;29.50;99.90;;;;;;5059681;28;20056;-77
2023/06/20 05:08:00;;;;;;;15.63;11.90;;;30.40;99.90;;;;;;5067199;28;20082;-78
2023/06/20 05:10:28;;;;;;;13.63;11.95;;;30.80;99.90;;;;;;5070750;28;20422;-77
2023/06/20 05:12:55;;;;;;;15.82;13.63;;;30.90;99.90;;;;;;5087916;28;20043;-76
2023/06/20 05:15:24;;;;;;;15.57;13.70;;;31.40;99.90;;;;;;5088359;28;20492;-76
2023/06/20 05:17:52;;;;;;;16.08;14.48;;;31.60;99.90;;;;;;5087974;28;20056;-75
2023/06/20 05:20:20;;;;;;;14.13;12.40;;;31.70;99.90;;;;;;5088622;28;20044;-75
2023/06/20 05:22:47;;;;;;;18.20;13.38;;;32.10;99.90;;;;;;5088193;28;20460;-76
2023/06/20 05:25:15;;;;;;;17.83;14.93;;;32.90;99.90;;;;;;5087501;28;20024;-76
2023/06/20 05:27:42;;;;;;;15.48;13.93;;;33.30;99.90;;;;;;5066350;28;20048;-76
2023/06/20 05:30:10;;;;;;;16.90;13.98;;;33.80;99.90;;;;;;5086112;28;20998;-77
2023/06/20 05:32:39;;;;;;;15.93;13.52;;;34.00;99.90;;;;;;5087922;28;20040;-78
2023/06/20 05:35:08;;;;;;;17.95;14.38;;;34.30;99.90;;;;;;5087497;28;20047;-74
2023/06/20 05:37:36;;;;;;;21.08;16.35;;;34.90;99.90;;;;;;5087845;28;20135;-75
2023/06/20 05:40:05;;;;;;;16.90;15.10;;;35.50;99.90;;;;;;5087292;28;20063;-77
2023/06/20 05:42:33;;;;;;;15.52;13.93;;;35.80;99.90;;;;;;5088440;28;20044;-77
2023/06/20 05:45:00;;;;;;;16.33;14.60;;;36.10;99.90;;;;;;5088320;28;20507;-78
2023/06/20 05:47:28;;;;;;;18.92;16.92;;;36.00;99.90;;;;;;5086691;28;20040;-78
2023/06/20 05:49:57;;;;;;;14.38;12.82;;;36.00;99.90;;;;;;5088088;28;20676;-77
2023/06/20 05:52:24;;;;;;;16.08;14.55;;;36.10;99.90;;;;;;5087580;28;20039;-78
2023/06/20 05:54:53;;;;;;;16.23;14.10;;;36.00;99.90;;;;;;5088534;28;20045;-76
2023/06/20 05:57:21;;;;;;;16.42;14.82;;;36.20;99.90;;;;;;5088158;28;20075;-76
2023/06/20 05:59:48;;;;;;;17.10;15.38;;;36.40;99.90;;;;;;5089280;28;20055;-76
2023/06/20 06:02:15;;;;;;;17.55;15.57;;;36.30;99.90;;;;;;5087923;28;20068;-76
2023/06/20 06:04:44;;;;;;;13.63;12.27;;;36.10;99.90;;;;;;5090089;28;20044;-76
2023/06/20 06:07:13;;;;;;;17.58;13.32;;;36.00;99.90;;;;;;5090196;28;20450;-77
2023/06/20 06:09:40;;;;;;;18.80;14.52;;;35.40;99.90;;;;;;5067964;28;20044;-77
2023/06/20 06:12:08;;;;;;;17.55;15.20;;;35.50;99.90;;;;;;5084369;28;20037;-77
2023/06/20 06:14:36;;;;;;;19.27;15.30;;;35.60;99.90;;;;;;5087549;28;20066;-77
2023/06/20 06:17:03;;;;;;;16.25;14.60;;;35.90;99.90;;;;;;5087207;28;20047;-73
2023/06/20 06:19:31;;;;;;;19.10;15.15;;;36.10;99.90;;;;;;5079373;28;20186;-75
2023/06/20 06:21:58;;;;;;;20.33;16.52;;;36.20;99.90;;;;;;5098895;28;20056;-77
2023/06/20 06:24:27;;;;;;;19.95;16.80;;;36.20;99.90;;;;;;5095741;28;20116;-77
2023/06/20 06:26:55;;;;;;;21.27;16.20;;;36.20;99.90;;;;;;5066122;28;20044;-76
2023/06/20 06:29:22;;;;;;;18.67;14.63;;;35.90;99.90;;;;;;5085910;28;20109;-78
2023/06/20 06:31:49;;;;;;;23.13;14.43;;;35.80;99.90;;;;;;5087641;28;20100;-77
2023/06/20 06:34:17;;;;;;;18.02;14.68;;;35.50;99.90;;;;;;5087600;28;20120;-75
2023/06/20 06:36:48;;;;;;;17.83;14.07;;;35.30;99.90;;;;;;5089237;28;20048;-79
2023/06/20 06:39:18;;;;;;;43.38;34.53;;;34.60;99.90;;;;;;5089080;28;20068;-77
2023/06/20 06:41:48;;;;;;;19.77;15.63;;;34.10;99.90;;;;;;5091808;28;20726;-76
2023/06/20 06:44:16;;;;;;;17.45;15.00;;;33.00;99.90;;;;;;5091726;28;20048;-76
2023/06/20 06:46:43;;;;;;;15.90;14.23;;;32.50;99.90;;;;;;5069949;28;20389;-77
2023/06/20 06:49:11;;;;;;;17.75;14.15;;;32.20;99.90;;;;;;5088558;28;20404;-77
2023/06/20 06:51:40;;;;;;;16.52;14.50;;;31.50;99.90;;;;;;5092195;28;20063;-76
2023/06/20 06:54:07;;;;;;;16.63;14.52;;;30.80;99.90;;;;;;5092128;28;20066;-76
2023/06/20 06:56:35;;;;;;;17.17;14.95;;;30.40;99.90;;;;;;5091775;28;20048;-75
2023/06/20 06:59:04;;;;;;;16.13;14.50;;;30.10;99.90;;;;;;5092547;28;20036;-75
2023/06/20 07:01:31;;;;;;;20.30;14.85;;;29.90;99.90;;;;;;5092335;28;20044;-78
2023/06/20 07:03:58;;;;;;;17.85;15.00;;;29.70;99.90;;;;;;5090830;28;20654;-75
2023/06/20 07:06:26;;;;;;;19.70;15.60;;;29.70;99.90;;;;;;5090289;28;20079;-75
2023/06/20 07:08:53;;;;;;;17.25;14.80;;;29.60;99.90;;;;;;5090483;28;20059;-77
2023/06/20 07:11:22;;;;;;;18.17;14.48;;;29.60;99.90;;;;;;5091532;28;20043;-77
2023/06/20 07:13:49;;;;;;;16.38;14.43;;;29.40;99.90;;;;;;5091512;28;20472;-75
2023/06/20 07:16:18;;;;;;;17.27;14.13;;;29.40;99.90;;;;;;5092018;28;20051;-75
2023/06/20 07:18:46;;;;;;;14.73;13.10;;;29.50;99.90;;;;;;5089961;28;20046;-76
2023/06/20 07:21:13;;;;;;;15.68;14.07;;;29.70;99.90;;;;;;5090970;28;20145;-76
2023/06/20 07:23:43;;;;;;;18.05;14.45;;;29.80;99.90;;;;;;5091623;28;20094;-76
2023/06/20 07:26:10;;;;;;;16.05;14.32;;;29.90;99.90;;;;;;5090404;28;20044;-77
2023/06/20 07:28:39;;;;;;;19.10;15.38;;;29.80;99.90;;;;;;5090431;28;20036;-75
2023/06/20 07:31:07;;;;;;;19.80;15.43;;;29.90;99.90;;;;;;5090104;28;20043;-77
2023/06/20 07:33:36;;;;;;;18.80;15.27;;;30.10;99.90;;;;;;5072678;28;20067;-77
2023/06/20 07:36:08;;;;;;;18.40;15.48;;;30.00;99.90;;;;;;5090997;28;20048;-76
2023/06/20 07:38:38;;;;;;;15.35;13.75;;;30.00;99.90;;;;;;5090231;28;20143;-77
2023/06/20 07:41:06;;;;;;;15.18;13.60;;;29.90;99.90;;;;;;5091097;28;20067;-77
2023/06/20 07:43:33;;;;;;;16.67;14.85;;;29.80;99.90;;;;;;5090939;28;20047;-76
2023/06/20 07:46:01;;;;;;;19.10;14.90;;;29.70;99.90;;;;;;5090209;28;20520;-76
2023/06/20 07:48:29;;;;;;;18.23;14.93;;;29.70;99.90;;;;;;5087956;28;20052;-74
2023/06/20 07:50:58;;;;;;;16.90;15.10;;;29.40;99.90;;;;;;5089234;28;20040;-77
2023/06/20 07:53:28;;;;;;;25.33;19.92;;;29.60;99.90;;;;;;5070840;28;20040;-77
2023/06/20 07:55:56;;;;;;;24.40;20.63;;;29.70;99.90;;;;;;5089698;28;20042;-77
2023/06/20 07:58:23;;;;;;;17.98;15.10;;;29.80;99.90;;;;;;5090260;28;20047;-75
2023/06/20 08:00:52;;;;;;;16.08;14.43;;;30.00;99.90;;;;;;5089611;28;20051;-75
2023/06/20 08:03:24;;;;;;;17.17;15.38;;;30.20;99.90;;;;;;5078436;28;20060;-76
2023/06/20 08:05:54;;;;;;;16.25;14.23;;;30.30;99.90;;;;;;5087082;28;20078;-76
2023/06/20 08:08:23;;;;;;;15.38;13.75;;;30.60;99.90;;;;;;5092067;28;20055;-78
2023/06/20 08:10:50;;;;;;;16.02;13.27;;;30.30;99.90;;;;;;5090571;28;20047;-76
2023/06/20 08:13:20;;;;;;;17.23;13.77;;;29.70;99.90;;;;;;5093304;28;20032;-77
2023/06/20 08:15:48;;;;;;;18.00;14.10;;;29.90;99.90;;;;;;5091225;28;20147;-76
2023/06/20 08:18:15;;;;;;;17.48;13.55;;;29.80;99.90;;;;;;5091377;28;20122;-77
2023/06/20 08:20:45;;;;;;;16.08;14.10;;;29.80;99.90;;;;;;5068543;28;20416;-76
2023/06/20 08:23:12;;;;;;;18.33;14.77;;;29.90;99.90;;;;;;5087649;28;20403;-76
2023/06/20 08:25:41;;;;;;;15.35;13.75;;;30.00;99.90;;;;;;5090778;28;20046;-76
2023/06/20 08:28:08;;;;;;;16.07;13.23;;;30.10;99.90;;;;;;5088216;28;20032;-78
2023/06/20 08:30:36;;;;;;;15.15;13.57;;;30.10;99.90;;;;;;5090281;28;20259;-76
2023/06/20 08:33:03;;;;;;;13.05;11.73;;;30.20;99.90;;;;;;5089412;28;20048;-78
2023/06/20 08:35:31;;;;;;;13.95;11.52;;;30.10;99.90;;;;;;5088543;28;20051;-77
2023/06/20 08:37:58;;;;;;;13.00;11.63;;;29.90;99.90;;;;;;5086885;28;20036;-78
2023/06/20 08:40:26;;;;;;;13.30;11.98;;;29.60;99.90;;;;;;5089015;28;20055;-78
2023/06/20 08:42:57;;;;;;;18.98;13.50;;;29.70;99.90;;;;;;5089943;28;20044;-77
2023/06/20 08:45:27;;;;;;;15.10;13.05;;;29.80;99.90;;;;;;5089057;28;20055;-77
2023/06/20 08:47:58;;;;;;;14.52;12.95;;;30.20;99.90;;;;;;5076376;22;20074;-79
2023/06/20 08:50:25;;;;;;;15.90;14.13;;;30.40;99.90;;;;;;5057456;28;20246;-80
2023/06/20 08:52:55;;;;;;;16.35;13.10;;;30.60;99.90;;;;;;5058060;28;20412;-81
2023/06/20 08:55:23;;;;;;;15.57;13.98;;;30.80;99.90;;;;;;5058228;28;20059;-79
2023/06/20 08:57:52;;;;;;;17.15;14.10;;;31.10;99.90;;;;;;5056604;28;20053;-80
2023/06/20 09:00:21;;;;;;;16.63;13.77;;;31.40;99.90;;;;;;5040367;28;20091;-79
2023/06/20 09:02:49;;;;;;;16.30;14.23;;;31.30;99.90;;;;;;5039371;28;20037;-79
2023/06/20 09:05:17;;;;;;;16.27;13.13;;;31.10;99.90;;;;;;5058865;28;20048;-80
2023/06/20 09:07:44;;;;;;;14.90;13.30;;;31.00;99.90;;;;;;5057376;28;20040;-79
2023/06/20 09:10:14;;;;;;;14.48;13.07;;;30.70;99.90;;;;;;5060247;28;20044;-79
2023/06/20 09:12:50;;;;;;;15.10;13.43;;;30.80;99.90;;;;;;5062498;28;20065;-79
2023/06/20 09:15:17;;;;;;;;;;;30.70;99.90;;;;;;5060198;28;20554;-79
2023/06/20 09:17:50;;;;;;;15.15;13.25;;;30.60;99.90;;;;;;5060856;28;20556;-78
2023/06/20 09:20:17;;;;;;;15.57;12.95;;;30.60;99.90;;;;;;5058771;28;20036;-79
2023/06/20 09:22:45;;;;;;;16.02;14.38;;;30.60;99.90;;;;;;5057472;28;20374;-79
2023/06/20 09:25:15;;;;;;;14.77;13.20;;;30.40;99.90;;;;;;5061119;28;20123;-91
2023/06/20 09:27:43;;;;;;;16.60;14.55;;;30.50;99.90;;;;;;5043154;28;20140;-83
2023/06/20 09:30:11;;;;;;;15.65;14.05;;;30.80;99.90;;;;;;5063335;28;20059;-87
2023/06/20 09:32:40;;;;;;;17.48;13.90;;;31.00;99.90;;;;;;5061351;28;20124;-83
2023/06/20 09:35:15;;;;;;;45.58;38.17;;;31.20;99.90;;;;;;5057777;28;20037;-79
2023/06/20 09:37:44;;;;;;;17.35;15.10;;;31.10;99.90;;;;;;5057613;28;20131;-81
2023/06/20 09:40:13;;;;;;;140.18;113.28;;;31.20;99.90;;;;;;5061507;28;20048;-80
2023/06/20 09:42:41;;;;;;;22.58;20.00;;;31.20;99.90;;;;;;5063786;28;20481;-80
2023/06/20 09:45:11;;;;;;;14.25;12.80;;;31.40;99.90;;;;;;5062371;28;20049;-82
2023/06/20 09:47:39;;;;;;;17.55;14.73;;;31.20;99.90;;;;;;5062038;28;20095;-82
2023/06/20 09:50:13;;;;;;;16.63;14.85;;;31.20;99.90;;;;;;5062734;28;20432;-80
2023/06/20 09:52:44;;;;;;;20.05;17.77;;;31.10;99.90;;;;;;5063201;28;20660;-81
2023/06/20 09:55:13;;;;;;;16.02;14.30;;;31.10;99.90;;;;;;5056667;28;20033;-80
2023/06/20 09:57:42;;;;;;;18.27;14.57;;;31.20;99.90;;;;;;5057376;28;20739;-79
2023/06/20 10:00:14;;;;;;;19.23;14.90;;;31.30;99.90;;;;;;5057555;28;20139;-78
2023/06/20 10:02:44;;;;;;;15.90;14.23;;;31.40;99.90;;;;;;5058211;28;20049;-77
2023/06/20 10:05:14;;;;;;;17.33;15.27;;;31.50;99.90;;;;;;5058246;28;20052;-78
2023/06/20 10:07:43;;;;;;;17.45;14.23;;;31.40;99.90;;;;;;5058369;28;20028;-80
2023/06/20 10:10:11;;;;;;;17.52;15.30;;;31.40;99.90;;;;;;5057680;28;20056;-77
2023/06/20 10:12:39;;;;;;;14.85;13.25;;;31.50;99.90;;;;;;5055901;28;20042;-78
2023/06/20 10:15:08;;;;;;;15.35;13.75;;;31.50;99.90;;;;;;5060517;28;20037;-78
2023/06/20 10:17:40;;;;;;;16.02;14.38;;;31.60;99.90;;;;;;5061925;28;20140;-78
2023/06/20 10:20:09;;;;;;;18.08;14.73;;;31.70;99.90;;;;;;5059682;28;20112;-79
2023/06/20 10:22:39;;;;;;;20.98;15.45;;;31.70;99.90;;;;;;5062266;28;20044;-79
2023/06/20 10:25:12;;;;;;;18.63;14.75;;;31.70;99.90;;;;;;5062908;28;20049;-79
2023/06/20 10:27:41;;;;;;;17.20;13.55;;;31.70;99.90;;;;;;5061332;28;20041;-78
2023/06/20 10:30:13;;;;;;;15.18;12.40;;;31.80;99.90;;;;;;5061010;28;20044;-78
2023/06/20 10:33:08;;;;;;;14.38;12.50;;;31.80;99.90;;;;;;5059962;28;20138;-77
2023/06/20 10:35:36;;;;;;;15.75;14.13;;;31.80;99.90;;;;;;5052791;28;20041;-78
2023/06/20 10:38:09;;;;;;;19.90;15.73;;;31.70;99.90;;;;;;5061609;28;20102;-78
2023/06/20 10:40:37;;;;;;;15.27;13.38;;;31.90;99.90;;;;;;5053492;28;20045;-78
2023/06/20 10:43:09;;;;;;;14.07;12.68;;;32.00;99.90;;;;;;5061383;28;20045;-78
2023/06/20 10:45:36;;;;;;;15.55;14.02;;;32.10;99.90;;;;;;5060146;28;20060;-78
2023/06/20 10:48:04;;;;;;;16.30;13.32;;;32.10;99.90;;;;;;5061312;28;20144;-79
2023/06/20 10:50:32;;;;;;;14.48;13.00;;;32.00;99.90;;;;;;5048084;28;20135;-77
2023/06/20 10:53:02;;;;;;;14.20;12.80;;;32.10;99.90;;;;;;5040142;28;20049;-78
2023/06/20 10:55:31;;;;;;;14.57;12.77;;;32.00;99.90;;;;;;5061885;28;20037;-79
2023/06/20 10:57:59;;;;;;;15.73;14.00;;;32.00;99.90;;;;;;5060939;28;20151;-78
2023/06/20 11:00:26;;;;;;;13.63;12.32;;;32.10;99.90;;;;;;5061551;28;20064;-78
2023/06/20 11:02:55;;;;;;;15.15;13.75;;;32.00;99.90;;;;;;5058812;28;20068;-78
2023/06/20 11:05:26;;;;;;;15.18;13.10;;;32.10;99.90;;;;;;5060308;28;20542;-79
2023/06/20 11:07:56;;;;;;;14.20;12.75;;;32.30;99.90;;;;;;5059901;28;20141;-78
2023/06/20 11:10:27;;;;;;;12.65;11.45;;;32.10;99.90;;;;;;5060580;28;20041;-77
2023/06/20 11:12:57;;;;;;;13.30;12.10;;;31.80;99.90;;;;;;5060253;28;20040;-79
2023/06/20 11:15:27;;;;;;;13.90;12.15;;;31.90;99.90;;;;;;5068262;28;20040;-78
2023/06/20 11:17:56;;;;;;;14.13;12.73;;;32.10;99.90;;;;;;5072125;28;20074;-78
2023/06/20 11:20:25;;;;;;;15.90;14.40;;;32.10;99.90;;;;;;5070471;28;20040;-79
2023/06/20 11:22:55;;;;;;;15.98;13.23;;;32.30;99.90;;;;;;5070386;28;20075;-78
2023/06/20 11:25:24;;;;;;;13.70;12.35;;;32.30;99.90;;;;;;5071414;28;20036;-79
2023/06/20 11:27:51;;;;;;;14.23;12.57;;;32.40;99.90;;;;;;5065671;28;20055;-79
2023/06/20 11:30:27;;;;;;;16.33;11.13;;;32.50;99.90;;;;;;5060051;28;20044;-78
2023/06/20 11:33:05;;;;;;;11.57;10.48;;;32.40;99.90;;;;;;5059819;28;20045;-80
2023/06/20 11:35:43;;;;;;;12.35;10.98;;;32.20;99.90;;;;;;5057191;28;20037;-79
2023/06/20 11:38:11;;;;;;;15.70;14.10;;;32.00;99.90;;;;;;5063706;28;20049;-79
2023/06/20 11:40:39;;;;;;;15.00;12.90;;;31.90;99.90;;;;;;5064827;28;20119;-81
2023/06/20 11:43:07;;;;;;;14.93;13.52;;;31.80;99.90;;;;;;5061337;28;20488;-78
2023/06/20 11:45:35;;;;;;;14.57;13.18;;;31.90;99.90;;;;;;5068086;28;20052;-79
2023/06/20 11:48:12;;;;;;;13.20;11.93;;;32.10;99.90;;;;;;5070452;28;20139;-78
2023/06/20 11:50:42;;;;;;;15.05;11.55;;;32.20;99.90;;;;;;5045523;28;20087;-77
2023/06/20 11:53:19;;;;;;;14.77;13.27;;;32.30;99.90;;;;;;5056581;28;20068;-79
2023/06/20 11:55:51;;;;;;;14.15;11.82;;;32.50;99.90;;;;;;5061119;28;20093;-78
2023/06/20 11:58:19;;;;;;;12.02;10.82;;;32.50;99.90;;;;;;5061432;28;20044;-78
2023/06/20 12:00:58;;;;;;;12.77;11.30;;;32.40;99.90;;;;;;5060672;28;20516;-76
2023/06/20 12:03:26;;;;;;;14.35;11.10;;;32.50;99.90;;;;;;5059781;28;20052;-79
2023/06/20 12:05:56;;;;;;;12.80;11.60;;;32.50;99.90;;;;;;5059569;28;20037;-78
2023/06/20 12:08:25;;;;;;;12.38;11.18;;;32.50;99.90;;;;;;5065983;28;20416;-78
2023/06/20 12:11:01;;;;;;;13.98;12.68;;;32.40;99.90;;;;;;5059497;28;20035;-78
2023/06/20 12:13:29;;;;;;;14.25;11.02;;;32.50;99.90;;;;;;5058782;28;20047;-78
2023/06/20 12:15:58;;;;;;;19.88;17.88;;;32.60;99.90;;;;;;5055197;28;20041;-77
2023/06/20 12:18:25;;;;;;;15.60;13.63;;;32.50;99.90;;;;;;5058973;28;20934;-79
2023/06/20 12:20:53;;;;;;;12.38;11.25;;;32.50;99.90;;;;;;5059217;28;20433;-80
2023/06/20 12:23:20;;;;;;;15.27;13.82;;;32.50;99.90;;;;;;5058371;28;20041;-79
2023/06/20 12:25:48;;;;;;;12.43;11.23;;;32.50;99.90;;;;;;5060411;28;20036;-80
2023/06/20 12:28:15;;;;;;;12.13;9.85;;;32.50;99.90;;;;;;5048186;28;20117;-80
2023/06/20 12:30:44;;;;;;;11.25;10.02;;;32.50;99.90;;;;;;5062463;28;20049;-78
2023/06/20 12:33:13;;;;;;;11.25;10.20;;;32.50;99.90;;;;;;5059275;28;20152;-77
2023/06/20 12:35:40;;;;;;;11.70;10.50;;;32.50;99.90;;;;;;5058665;28;20766;-80
2023/06/20 12:38:10;;;;;;;10.88;9.77;;;32.40;99.90;;;;;;5058441;28;20064;-78